createdAt,value
2023-05-15T00:00:35.707Z,243.37
2023-05-15T00:01:35.704Z,241.96
2023-05-15T00:02:35.834Z,243.25
2023-05-15T00:03:35.841Z,243.02
2023-05-15T00:04:35.815Z,244.26
2023-05-15T00:05:35.781Z,243.02
2023-05-15T00:06:35.841Z,241.02
2023-05-15T00:07:35.848Z,243.05
2023-05-15T00:08:35.923Z,239.63
2023-05-15T00:09:35.895Z,245.41
2023-05-15T00:10:35.974Z,242.25
2023-05-15T00:11:35.968Z,242.75
2023-05-15T00:12:36.003Z,240.04
2023-05-15T00:13:36.014Z,242.76
2023-05-15T00:14:36.050Z,243.27
2023-05-15T00:15:36.101Z,242.48
2023-05-15T00:16:36.238Z,243.59
2023-05-15T00:17:36.222Z,245.86
2023-05-15T00:18:36.183Z,245.10
2023-05-15T00:19:36.178Z,243.44
2023-05-15T00:20:36.226Z,244.48
2023-05-15T00:21:36.242Z,241.17
2023-05-15T00:22:36.266Z,240.61
2023-05-15T00:23:36.281Z,241.50
2023-05-15T00:24:36.293Z,246.21
2023-05-15T00:25:36.339Z,243.04
2023-05-15T00:26:36.354Z,241.52
2023-05-15T00:27:36.393Z,247.16
2023-05-15T00:28:36.384Z,243.64
2023-05-15T00:29:36.445Z,243.68
2023-05-15T00:30:36.439Z,245.50
2023-05-15T00:31:36.474Z,244.44
2023-05-15T00:32:36.540Z,242.14
2023-05-15T00:33:36.528Z,245.05
2023-05-15T00:34:36.567Z,242.52
2023-05-15T00:35:36.575Z,242.64
2023-05-15T00:36:36.621Z,243.41
2023-05-15T00:37:36.628Z,240.64
2023-05-15T00:38:36.662Z,242.42
2023-05-15T00:39:36.707Z,244.30
2023-05-15T00:40:36.722Z,244.99
2023-05-15T00:41:36.718Z,243.80
2023-05-15T00:42:36.825Z,244.42
2023-05-15T00:43:36.778Z,242.55
2023-05-15T00:44:36.858Z,245.30
2023-05-15T00:45:36.857Z,241.35
2023-05-15T00:46:36.940Z,242.16
2023-05-15T00:47:36.998Z,243.78
2023-05-15T00:48:36.989Z,244.46
2023-05-15T00:49:36.990Z,245.42
2023-05-15T00:50:37.029Z,243.88
2023-05-15T00:51:37.061Z,241.69
2023-05-15T00:52:37.148Z,242.17
2023-05-15T00:53:37.130Z,245.13
2023-05-15T00:54:37.120Z,244.50
2023-05-15T00:55:37.179Z,241.93
2023-05-15T00:56:37.171Z,242.85
2023-05-15T00:57:37.208Z,243.44
2023-05-15T00:58:37.209Z,241.44
2023-05-15T00:59:37.259Z,242.64
2023-05-15T01:00:37.283Z,242.32
2023-05-15T01:01:37.314Z,242.75
2023-05-15T01:02:37.333Z,242.47
2023-05-15T01:03:37.374Z,241.22
2023-05-15T01:04:38.245Z,242.23
2023-05-15T01:05:37.388Z,242.17
2023-05-15T01:06:37.443Z,243.20
2023-05-15T01:07:37.461Z,240.09
2023-05-15T01:08:37.460Z,245.23
2023-05-15T01:09:37.485Z,242.42
2023-05-15T01:10:37.681Z,241.87
2023-05-15T01:11:37.598Z,244.55
2023-05-15T01:12:37.592Z,240.77
2023-05-15T01:13:37.620Z,246.39
2023-05-15T01:14:37.666Z,240.12
2023-05-15T01:15:37.673Z,241.31
2023-05-15T01:16:37.695Z,241.99
2023-05-15T01:17:37.780Z,243.26
2023-05-15T01:18:37.882Z,246.37
2023-05-15T01:19:37.895Z,245.85
2023-05-15T01:20:37.815Z,244.26
2023-05-15T01:21:37.843Z,245.08
2023-05-15T01:22:37.885Z,247.04
2023-05-15T01:23:37.924Z,244.61
2023-05-15T01:24:38.054Z,246.33
2023-05-15T01:25:38.009Z,242.99
2023-05-15T01:26:38.758Z,240.14
2023-05-15T01:27:38.029Z,242.17
2023-05-15T01:28:38.076Z,243.02
2023-05-15T01:29:38.113Z,244.48
2023-05-15T01:30:38.138Z,243.56
2023-05-15T01:31:38.224Z,243.45
2023-05-15T01:32:38.248Z,242.47
2023-05-15T01:33:38.242Z,241.35
2023-05-15T01:34:38.305Z,244.57
2023-05-15T01:35:38.279Z,244.60
2023-05-15T01:36:38.321Z,242.96
2023-05-15T01:37:38.324Z,242.52
2023-05-15T01:38:38.393Z,248.59
2023-05-15T01:39:38.402Z,244.54
2023-05-15T01:40:38.445Z,241.25
2023-05-15T01:41:38.465Z,239.04
2023-05-15T01:42:38.516Z,244.09
2023-05-15T01:43:38.512Z,244.46
2023-05-15T01:44:38.534Z,241.67
2023-05-15T01:45:38.597Z,243.02
2023-05-15T01:46:38.673Z,240.11
2023-05-15T01:47:38.694Z,244.80
2023-05-15T01:48:38.647Z,242.23
2023-05-15T01:49:38.714Z,241.91
2023-05-15T01:50:38.729Z,242.51
2023-05-15T01:51:38.727Z,241.33
2023-05-15T01:52:38.781Z,241.45
2023-05-15T01:53:38.812Z,243.62
2023-05-15T01:54:38.843Z,243.22
2023-05-15T01:55:38.849Z,242.58
2023-05-15T01:56:38.911Z,241.85
2023-05-15T01:57:38.940Z,244.19
2023-05-15T01:58:38.946Z,240.56
2023-05-15T01:59:39.000Z,242.39
2023-05-15T02:00:39.034Z,241.21
2023-05-15T02:01:39.104Z,247.54
2023-05-15T02:02:39.119Z,245.33
2023-05-15T02:03:39.168Z,241.70
2023-05-15T02:04:39.161Z,241.03
2023-05-15T02:05:39.235Z,241.00
2023-05-15T02:06:39.198Z,242.78
2023-05-15T02:07:39.253Z,244.08
2023-05-15T02:08:39.299Z,241.89
2023-05-15T02:09:39.341Z,244.54
2023-05-15T02:10:39.357Z,240.78
2023-05-15T02:11:39.442Z,242.75
2023-05-15T02:12:39.453Z,244.01
2023-05-15T02:13:39.555Z,242.90
2023-05-15T02:14:39.536Z,242.59
2023-05-15T02:15:39.566Z,239.50
2023-05-15T02:16:39.663Z,242.48
2023-05-15T02:17:39.677Z,244.27
2023-05-15T02:18:39.680Z,245.13
2023-05-15T02:19:39.710Z,242.84
2023-05-15T02:20:39.739Z,243.47
2023-05-15T02:21:39.746Z,244.52
2023-05-15T02:22:39.835Z,244.45
2023-05-15T02:23:39.830Z,243.99
2023-05-15T02:24:39.870Z,245.12
2023-05-15T02:25:39.900Z,243.12
2023-05-15T02:26:39.910Z,244.60
2023-05-15T02:27:39.999Z,241.75
2023-05-15T02:28:40.010Z,241.76
2023-05-15T02:29:40.022Z,241.85
2023-05-15T02:30:40.096Z,239.59
2023-05-15T02:31:40.171Z,243.45
2023-05-15T02:32:40.199Z,243.05
2023-05-15T02:33:40.203Z,245.22
2023-05-15T02:34:40.233Z,242.49
2023-05-15T02:35:40.282Z,244.76
2023-05-15T02:36:40.326Z,243.83
2023-05-15T02:37:40.385Z,242.49
2023-05-15T02:38:40.372Z,246.54
2023-05-15T02:39:40.450Z,247.71
2023-05-15T02:40:40.478Z,242.56
2023-05-15T02:41:40.492Z,241.50
2023-05-15T02:42:40.530Z,244.61
2023-05-15T02:43:40.574Z,241.78
2023-05-15T02:44:40.677Z,244.60
2023-05-15T02:45:40.695Z,243.18
2023-05-15T02:46:40.700Z,242.55
2023-05-15T02:47:40.752Z,244.58
2023-05-15T02:48:40.750Z,242.86
2023-05-15T02:49:40.805Z,242.52
2023-05-15T02:50:40.792Z,245.17
2023-05-15T02:51:40.855Z,239.38
2023-05-15T02:52:40.869Z,242.71
2023-05-15T02:53:40.956Z,241.39
2023-05-15T02:54:40.962Z,244.48
2023-05-15T02:55:41.033Z,245.93
2023-05-15T02:56:41.040Z,242.74
2023-05-15T02:57:41.106Z,242.05
2023-05-15T02:58:41.153Z,243.33
2023-05-15T02:59:41.138Z,243.66
2023-05-15T03:00:41.240Z,243.54
2023-05-15T03:01:41.253Z,243.17
2023-05-15T03:02:41.284Z,241.27
2023-05-15T03:03:41.326Z,242.02
2023-05-15T03:04:41.429Z,239.51
2023-05-15T03:05:41.401Z,243.51
2023-05-15T03:06:41.445Z,242.58
2023-05-15T03:07:41.472Z,243.03
2023-05-15T03:08:41.521Z,243.70
2023-05-15T03:09:41.526Z,240.94
2023-05-15T03:10:41.611Z,244.00
2023-05-15T03:11:41.610Z,243.90
2023-05-15T03:12:41.646Z,242.80
2023-05-15T03:13:41.697Z,243.90
2023-05-15T03:14:41.704Z,243.22
2023-05-15T03:15:41.769Z,244.05
2023-05-15T03:16:41.877Z,243.30
2023-05-15T03:17:41.880Z,243.99
2023-05-15T03:18:41.908Z,243.96
2023-05-15T03:19:41.921Z,241.49
2023-05-15T03:20:41.921Z,243.46
2023-05-15T03:21:41.959Z,245.50
2023-05-15T03:22:42.005Z,242.26
2023-05-15T03:23:42.077Z,245.43
2023-05-15T03:24:42.143Z,241.98
2023-05-15T03:25:42.168Z,243.61
2023-05-15T03:26:42.193Z,243.41
2023-05-15T03:27:42.220Z,243.53
2023-05-15T03:28:42.506Z,246.26
2023-05-15T03:29:42.313Z,241.17
2023-05-15T03:30:42.316Z,244.17
2023-05-15T03:31:42.389Z,243.00
2023-05-15T03:32:42.474Z,243.22
2023-05-15T03:33:42.474Z,244.77
2023-05-15T03:34:42.492Z,245.87
2023-05-15T03:35:42.571Z,240.75
2023-05-15T03:36:42.617Z,242.97
2023-05-15T03:37:42.636Z,242.66
2023-05-15T03:38:42.681Z,244.69
2023-05-15T03:39:42.719Z,240.79
2023-05-15T03:40:42.757Z,242.18
2023-05-15T03:41:42.801Z,243.94
2023-05-15T03:42:42.919Z,243.23
2023-05-15T03:43:42.878Z,247.99
2023-05-15T03:44:42.933Z,246.52
2023-05-15T03:45:42.993Z,245.60
2023-05-15T03:46:43.036Z,243.38
2023-05-15T03:47:43.150Z,241.62
2023-05-15T03:48:43.086Z,243.61
2023-05-15T03:49:43.101Z,241.70
2023-05-15T03:50:43.176Z,242.23
2023-05-15T03:51:43.180Z,244.27
2023-05-15T03:52:43.302Z,243.41
2023-05-15T03:53:43.297Z,242.79
2023-05-15T03:54:43.338Z,242.88
2023-05-15T03:55:43.333Z,242.85
2023-05-15T03:56:43.386Z,244.16
2023-05-15T03:57:43.445Z,244.02
2023-05-15T03:58:43.512Z,241.90
2023-05-15T03:59:43.537Z,246.55
2023-05-15T04:00:43.589Z,244.57
2023-05-15T04:01:59.334Z,245.28
2023-05-15T04:02:44.658Z,245.48
2023-05-15T04:03:43.694Z,245.61
2023-05-15T04:04:43.623Z,244.54
2023-05-15T04:05:43.782Z,239.86
2023-05-15T04:06:43.579Z,234.58
2023-05-15T04:07:43.579Z,229.64
2023-05-15T04:08:43.584Z,223.20
2023-05-15T04:09:43.539Z,216.70
2023-05-15T04:10:43.540Z,216.23
2023-05-15T04:11:43.542Z,206.58
2023-05-15T04:12:43.566Z,205.39
2023-05-15T04:13:43.612Z,203.13
2023-05-15T04:14:43.516Z,197.26
2023-05-15T04:15:43.585Z,192.26
2023-05-15T04:16:43.675Z,183.89
2023-05-15T04:17:43.687Z,180.43
2023-05-15T04:18:43.801Z,176.39
2023-05-15T04:19:43.775Z,169.07
2023-05-15T04:20:43.835Z,166.06
2023-05-15T04:21:44.819Z,164.18
2023-05-15T04:22:43.984Z,161.14
2023-05-15T04:23:43.985Z,156.46
2023-05-15T04:24:44.055Z,147.42
2023-05-15T04:25:44.102Z,148.09
2023-05-15T04:26:44.185Z,143.75
2023-05-15T04:27:44.252Z,142.19
2023-05-15T04:28:52.358Z,135.54
2023-05-15T04:29:45.284Z,135.73
2023-05-15T04:30:44.294Z,134.76
2023-05-15T04:31:44.298Z,129.83
2023-05-15T04:32:44.252Z,126.20
2023-05-15T04:33:44.237Z,130.35
2023-05-15T04:34:44.222Z,124.29
2023-05-15T04:35:44.253Z,127.08
2023-05-15T04:36:44.218Z,128.35
2023-05-15T04:37:44.214Z,126.71
2023-05-15T04:38:44.232Z,127.59
2023-05-15T04:39:44.280Z,127.72
2023-05-15T04:40:44.330Z,128.43
2023-05-15T04:41:44.389Z,126.66
2023-05-15T04:42:44.525Z,125.62
2023-05-15T04:43:44.550Z,123.32
2023-05-15T04:44:44.567Z,126.67
2023-05-15T04:45:44.689Z,128.11
2023-05-15T04:46:44.661Z,126.92
2023-05-15T04:47:44.758Z,126.31
2023-05-15T04:48:44.780Z,125.92
2023-05-15T04:49:44.824Z,127.41
2023-05-15T04:50:44.865Z,124.62
2023-05-15T04:51:44.909Z,128.78
2023-05-15T04:52:44.950Z,131.35
2023-05-15T04:53:45.037Z,129.58
2023-05-15T04:54:45.063Z,130.35
2023-05-15T04:55:45.130Z,129.92
2023-05-15T04:56:45.148Z,130.96
2023-05-15T04:57:45.222Z,129.55
2023-05-15T04:58:45.270Z,129.50
2023-05-15T04:59:45.290Z,130.34
2023-05-15T05:00:45.341Z,132.65
2023-05-15T05:01:45.424Z,128.38
2023-05-15T05:02:45.528Z,129.78
2023-05-15T05:03:45.500Z,130.65
2023-05-15T05:04:45.540Z,134.19
2023-05-15T05:05:45.564Z,131.31
2023-05-15T05:06:45.588Z,132.00
2023-05-15T05:07:45.668Z,130.71
2023-05-15T05:08:45.736Z,132.93
2023-05-15T05:09:45.759Z,131.35
2023-05-15T05:10:45.802Z,131.17
2023-05-15T05:11:45.843Z,129.17
2023-05-15T05:12:45.891Z,126.20
2023-05-15T05:13:45.933Z,129.50
2023-05-15T05:14:45.956Z,126.69
2023-05-15T05:15:46.093Z,127.17
2023-05-15T05:16:46.052Z,127.35
2023-05-15T05:17:46.103Z,129.99
2023-05-15T05:18:46.149Z,124.89
2023-05-15T05:19:46.320Z,126.34
2023-05-15T05:20:46.209Z,126.51
2023-05-15T05:21:46.312Z,131.04
2023-05-15T05:22:46.361Z,124.79
2023-05-15T05:23:46.365Z,125.56
2023-05-15T05:24:46.447Z,119.62
2023-05-15T05:25:46.564Z,118.98
2023-05-15T05:26:46.549Z,117.72
2023-05-15T05:27:46.626Z,116.09
2023-05-15T05:28:46.962Z,115.58
2023-05-15T05:29:46.651Z,109.07
2023-05-15T05:30:46.792Z,108.43
2023-05-15T05:31:46.894Z,107.96
2023-05-15T05:32:46.831Z,108.86
2023-05-15T05:33:46.842Z,105.63
2023-05-15T05:34:46.892Z,107.73
2023-05-15T05:35:47.601Z,107.47
2023-05-15T05:36:47.035Z,113.34
2023-05-15T05:37:47.025Z,115.69
2023-05-15T05:38:47.145Z,110.04
2023-05-15T05:39:47.140Z,106.25
2023-05-15T05:40:47.538Z,103.10
2023-05-15T05:41:47.261Z,104.72
2023-05-15T05:42:47.315Z,105.22
2023-05-15T05:43:48.102Z,99.61
2023-05-15T05:44:47.422Z,106.11
2023-05-15T05:45:47.569Z,112.28
2023-05-15T05:46:47.628Z,118.04
2023-05-15T05:47:47.737Z,119.93
2023-05-15T05:48:47.672Z,128.81
2023-05-15T05:49:47.786Z,134.18
2023-05-15T05:50:47.919Z,141.99
2023-05-15T05:51:47.941Z,144.71
2023-05-15T05:52:47.927Z,145.87
2023-05-15T05:53:47.982Z,151.79
2023-05-15T05:54:48.128Z,155.52
2023-05-15T05:55:48.035Z,156.44
2023-05-15T05:56:48.399Z,156.24
2023-05-15T05:57:48.096Z,160.32
2023-05-15T05:58:48.256Z,164.03
2023-05-15T05:59:48.225Z,163.05
2023-05-15T06:00:48.272Z,169.36
2023-05-15T06:01:48.414Z,167.47
2023-05-15T06:02:48.352Z,172.73
2023-05-15T06:03:48.459Z,173.23
2023-05-15T06:04:48.391Z,178.35
2023-05-15T06:05:48.398Z,178.73
2023-05-15T06:06:48.874Z,182.45
2023-05-15T06:07:48.454Z,184.63
2023-05-15T06:08:49.413Z,186.24
2023-05-15T06:09:48.548Z,187.38
2023-05-15T06:10:55.399Z,188.73
2023-05-15T06:11:48.561Z,189.18
2023-05-15T06:12:48.615Z,190.24
2023-05-15T06:13:48.477Z,192.28
2023-05-15T06:14:48.691Z,196.78
2023-05-15T06:15:48.450Z,199.00
2023-05-15T06:16:49.064Z,196.80
2023-05-15T06:17:48.546Z,196.79
2023-05-15T06:18:48.644Z,194.47
2023-05-15T06:19:48.425Z,200.99
2023-05-15T06:20:48.482Z,200.92
2023-05-15T06:21:48.907Z,204.12
2023-05-15T06:22:48.936Z,206.89
2023-05-15T06:23:48.598Z,210.64
2023-05-15T06:24:48.880Z,209.70
2023-05-15T06:25:49.185Z,209.00
2023-05-15T06:26:49.305Z,208.35
2023-05-15T06:27:48.362Z,212.61
2023-05-15T06:28:48.354Z,211.28
2023-05-15T06:29:48.394Z,206.00
2023-05-15T06:30:48.440Z,206.29
2023-05-15T06:31:50.041Z,198.18
2023-05-15T06:32:48.435Z,191.54
2023-05-15T06:33:48.438Z,190.29
2023-05-15T06:34:48.526Z,191.65
2023-05-15T06:35:48.311Z,187.06
2023-05-15T06:36:48.354Z,185.71
2023-05-15T06:37:48.662Z,182.37
2023-05-15T06:38:48.405Z,182.14
2023-05-15T06:39:48.488Z,176.49
2023-05-15T06:40:48.323Z,182.58
2023-05-15T06:41:48.280Z,185.54
2023-05-15T06:42:48.246Z,183.84
2023-05-15T06:43:48.393Z,188.70
2023-05-15T06:44:48.256Z,191.55
2023-05-15T06:45:48.267Z,195.14
2023-05-15T06:46:48.283Z,194.74
2023-05-15T06:47:48.255Z,194.11
2023-05-15T06:48:48.394Z,197.24
2023-05-15T06:49:48.216Z,193.20
2023-05-15T06:50:48.553Z,195.19
2023-05-15T06:51:48.182Z,194.84
2023-05-15T06:52:48.223Z,200.29
2023-05-15T06:53:48.254Z,201.57
2023-05-15T06:54:48.549Z,199.22
2023-05-15T06:55:48.368Z,198.36
2023-05-15T06:56:48.301Z,186.16
2023-05-15T06:57:48.293Z,190.31
2023-05-15T06:58:48.416Z,187.94
2023-05-15T06:59:48.436Z,192.70
2023-05-15T07:00:48.351Z,192.67
2023-05-15T07:01:48.424Z,188.94
2023-05-15T07:02:48.476Z,193.44
2023-05-15T07:03:48.205Z,194.91
2023-05-15T07:04:48.489Z,197.99
2023-05-15T07:05:48.302Z,199.46
2023-05-15T07:06:48.321Z,199.85
2023-05-15T07:07:48.425Z,196.77
2023-05-15T07:08:48.374Z,189.06
2023-05-15T07:09:48.483Z,193.37
2023-05-15T07:10:48.504Z,194.74
2023-05-15T07:11:48.565Z,198.75
2023-05-15T07:12:48.903Z,201.79
2023-05-15T07:13:48.975Z,191.18
2023-05-15T07:14:48.603Z,191.92
2023-05-15T07:15:48.595Z,195.05
2023-05-15T07:16:48.747Z,196.69
2023-05-15T07:17:49.105Z,192.41
2023-05-15T07:18:48.764Z,200.79
2023-05-15T07:19:48.782Z,196.11
2023-05-15T07:20:48.862Z,193.90
2023-05-15T07:21:48.899Z,198.43
2023-05-15T07:22:56.210Z,182.63
2023-05-15T07:23:49.961Z,183.00
2023-05-15T07:24:48.954Z,184.07
2023-05-15T07:25:48.943Z,184.69
2023-05-15T07:26:58.271Z,182.60
2023-05-15T07:27:49.911Z,183.19
2023-05-15T07:28:48.921Z,184.31
2023-05-15T07:29:48.938Z,186.91
2023-05-15T07:30:48.885Z,190.69
2023-05-15T07:31:48.906Z,182.62
2023-05-15T07:32:49.062Z,184.07
2023-05-15T07:33:48.938Z,171.20
2023-05-15T07:34:48.846Z,171.67
2023-05-15T07:35:48.814Z,137.49
2023-05-15T07:36:48.875Z,123.20
2023-05-15T07:37:48.870Z,133.44
2023-05-15T07:38:48.952Z,132.27
2023-05-15T07:39:49.421Z,125.83
2023-05-15T07:40:48.882Z,123.00
2023-05-15T07:41:48.967Z,136.92
2023-05-15T07:42:48.912Z,149.06
2023-05-15T07:43:49.522Z,153.94
2023-05-15T07:44:49.753Z,155.42
2023-05-15T07:45:49.197Z,158.56
2023-05-15T07:46:49.215Z,158.39
2023-05-15T07:47:49.281Z,160.41
2023-05-15T07:48:49.426Z,157.13
2023-05-15T07:49:49.316Z,157.17
2023-05-15T07:50:49.361Z,155.45
2023-05-15T07:51:49.437Z,158.55
2023-05-15T07:52:49.489Z,156.00
2023-05-15T07:53:49.480Z,160.95
2023-05-15T07:54:49.539Z,162.66
2023-05-15T07:55:49.584Z,158.00
2023-05-15T07:56:49.625Z,164.29
2023-05-15T07:57:53.336Z,163.94
2023-05-15T07:58:49.665Z,164.18
2023-05-15T07:59:49.718Z,156.87
2023-05-15T08:00:49.853Z,162.29
2023-05-15T08:01:49.642Z,161.89
2023-05-15T08:02:49.754Z,162.84
2023-05-15T08:03:49.720Z,165.37
2023-05-15T08:04:49.614Z,159.08
2023-05-15T08:05:49.585Z,164.47
2023-05-15T08:06:49.632Z,172.95
2023-05-15T08:07:49.582Z,168.76
2023-05-15T08:08:49.616Z,167.61
2023-05-15T08:09:49.604Z,167.94
2023-05-15T08:10:49.557Z,172.22
2023-05-15T08:11:49.820Z,173.06
2023-05-15T08:12:49.554Z,170.63
2023-05-15T08:13:49.627Z,170.57
2023-05-15T08:14:49.569Z,171.19
2023-05-15T08:15:49.573Z,171.51
2023-05-15T08:16:49.529Z,168.47
2023-05-15T08:17:49.586Z,169.63
2023-05-15T08:18:49.580Z,172.94
2023-05-15T08:19:49.657Z,167.31
2023-05-15T08:20:49.520Z,161.43
2023-05-15T08:21:49.524Z,162.74
2023-05-15T08:22:49.445Z,162.22
2023-05-15T08:23:49.468Z,160.69
2023-05-15T08:24:49.488Z,165.81
2023-05-15T08:25:49.464Z,169.00
2023-05-15T08:26:49.515Z,157.86
2023-05-15T08:27:49.565Z,154.20
2023-05-15T08:28:49.579Z,151.83
2023-05-15T08:29:49.511Z,155.28
2023-05-15T08:30:49.494Z,153.90
2023-05-15T08:31:49.522Z,159.95
2023-05-15T08:32:49.443Z,160.69
2023-05-15T08:33:49.439Z,156.93
2023-05-15T08:34:49.428Z,153.68
2023-05-15T08:35:49.398Z,145.88
2023-05-15T08:36:49.469Z,133.49
2023-05-15T08:37:49.369Z,127.86
2023-05-15T08:38:49.386Z,108.33
2023-05-15T08:39:49.333Z,90.85
2023-05-15T08:40:49.358Z,94.40
2023-05-15T08:41:49.357Z,80.49
2023-05-15T08:42:49.387Z,97.85
2023-05-15T08:43:49.386Z,91.46
2023-05-15T08:44:49.322Z,69.89
2023-05-15T08:45:49.493Z,88.19
2023-05-15T08:46:49.507Z,103.92
2023-05-15T08:47:49.594Z,116.10
2023-05-15T08:48:49.619Z,117.21
2023-05-15T08:49:49.514Z,124.99
2023-05-15T08:50:49.547Z,116.62
2023-05-15T08:51:49.557Z,125.38
2023-05-15T08:52:49.681Z,137.33
2023-05-15T08:53:49.587Z,143.58
2023-05-15T08:54:49.640Z,145.13
2023-05-15T08:55:49.656Z,148.82
2023-05-15T08:56:49.707Z,144.73
2023-05-15T08:57:49.706Z,148.50
2023-05-15T08:58:49.702Z,157.04
2023-05-15T08:59:49.763Z,151.40
2023-05-15T09:00:49.740Z,158.63
2023-05-15T09:01:50.095Z,158.81
2023-05-15T09:02:49.814Z,161.61
2023-05-15T09:03:49.800Z,156.81
2023-05-15T09:04:49.766Z,166.02
2023-05-15T09:05:49.782Z,169.83
2023-05-15T09:06:49.765Z,171.19
2023-05-15T09:07:49.759Z,175.74
2023-05-15T09:08:49.877Z,170.38
2023-05-15T09:09:49.846Z,177.25
2023-05-15T09:10:49.785Z,183.05
2023-05-15T09:11:49.785Z,184.10
2023-05-15T09:12:49.808Z,184.70
2023-05-15T09:13:49.766Z,183.04
2023-05-15T09:14:49.787Z,186.38
2023-05-15T09:15:49.818Z,185.85
2023-05-15T09:16:49.830Z,190.08
2023-05-15T09:17:49.827Z,189.71
2023-05-15T09:18:49.841Z,194.24
2023-05-15T09:19:49.861Z,195.21
2023-05-15T09:20:49.753Z,197.26
2023-05-15T09:21:49.787Z,194.35
2023-05-15T09:22:49.811Z,193.64
2023-05-15T09:23:49.789Z,197.33
2023-05-15T09:24:49.855Z,197.49
2023-05-15T09:25:49.859Z,196.98
2023-05-15T09:26:49.853Z,197.31
2023-05-15T09:27:49.881Z,195.20
2023-05-15T09:28:49.892Z,185.89
2023-05-15T09:29:49.839Z,186.84
2023-05-15T09:30:49.947Z,123.49
2023-05-15T09:31:50.011Z,86.08
2023-05-15T09:32:50.152Z,76.55
2023-05-15T09:33:50.029Z,46.45
2023-05-15T09:34:50.065Z,29.70
2023-05-15T09:35:50.027Z,23.08
2023-05-15T09:36:50.026Z,18.15
2023-05-15T09:37:50.044Z,24.31
2023-05-15T09:38:50.077Z,35.46
2023-05-15T09:39:50.123Z,49.73
2023-05-15T09:40:50.164Z,52.60
2023-05-15T09:41:50.216Z,54.14
2023-05-15T09:42:50.252Z,51.50
2023-05-15T09:43:50.450Z,71.45
2023-05-15T09:44:50.332Z,93.38
2023-05-15T09:45:50.400Z,92.65
2023-05-15T09:46:50.436Z,98.98
2023-05-15T09:47:50.369Z,95.24
2023-05-15T09:48:50.355Z,93.13
2023-05-15T09:49:50.318Z,99.94
2023-05-15T09:50:50.338Z,102.35
2023-05-15T09:51:50.326Z,104.79
2023-05-15T09:52:50.309Z,107.58
2023-05-15T09:53:50.317Z,108.35
2023-05-15T09:54:50.675Z,101.88
2023-05-15T09:55:50.360Z,104.82
2023-05-15T09:56:50.423Z,93.43
2023-05-15T09:57:50.530Z,92.74
2023-05-15T09:58:50.481Z,102.32
2023-05-15T09:59:50.534Z,108.34
2023-05-15T10:00:50.620Z,117.64
2023-05-15T10:01:50.680Z,126.40
2023-05-15T10:02:50.737Z,117.96
2023-05-15T10:03:50.760Z,115.28
2023-05-15T10:04:50.845Z,109.80
2023-05-15T10:05:50.972Z,119.75
2023-05-15T10:06:50.950Z,123.76
2023-05-15T10:07:50.995Z,121.49
2023-05-15T10:08:51.096Z,127.44
2023-05-15T10:09:51.118Z,111.54
2023-05-15T10:10:51.131Z,125.51
2023-05-15T10:11:51.249Z,131.95
2023-05-15T10:12:51.281Z,120.32
2023-05-15T10:13:51.339Z,122.74
2023-05-15T10:14:51.407Z,129.12
2023-05-15T10:15:51.562Z,114.06
2023-05-15T10:16:51.480Z,117.85
2023-05-15T10:17:51.590Z,124.98
2023-05-15T10:18:51.626Z,125.29
2023-05-15T10:20:51.589Z,126.20
2023-05-15T10:21:51.595Z,126.43
2023-05-15T10:22:51.575Z,130.29
2023-05-15T10:23:51.576Z,134.65
2023-05-15T10:24:51.582Z,140.06
2023-05-15T10:25:51.539Z,125.04
2023-05-15T10:26:51.526Z,121.89
2023-05-15T10:27:51.546Z,133.38
2023-05-15T10:28:51.561Z,134.38
2023-05-15T10:29:51.528Z,147.33
2023-05-15T10:30:51.482Z,147.41
2023-05-15T10:31:51.546Z,145.95
2023-05-15T10:32:51.550Z,148.27
2023-05-15T10:33:51.489Z,145.16
2023-05-15T10:34:51.473Z,143.31
2023-05-15T10:35:51.500Z,132.21
2023-05-15T10:36:51.449Z,129.19
2023-05-15T10:37:51.483Z,128.10
2023-05-15T10:38:51.503Z,128.51
2023-05-15T10:39:51.537Z,127.47
2023-05-15T10:40:51.599Z,127.28
2023-05-15T10:41:51.587Z,131.01
2023-05-15T10:42:51.666Z,115.64
2023-05-15T10:43:51.667Z,114.18
2023-05-15T10:44:51.714Z,118.62
2023-05-15T10:45:51.733Z,125.08
2023-05-15T10:46:51.769Z,119.84
2023-05-15T10:47:51.866Z,128.23
2023-05-15T10:48:51.852Z,122.37
2023-05-15T10:49:51.847Z,114.50
2023-05-15T10:50:51.883Z,104.26
2023-05-15T10:51:51.929Z,100.25
2023-05-15T10:52:51.934Z,88.40
2023-05-15T10:53:51.992Z,92.80
2023-05-15T10:54:52.016Z,93.38
2023-05-15T10:55:52.180Z,98.62
2023-05-15T10:56:52.503Z,98.33
2023-05-15T10:57:52.140Z,94.05
2023-05-15T10:58:52.156Z,90.56
2023-05-15T10:59:52.234Z,93.70
2023-05-15T11:00:52.250Z,89.28
2023-05-15T11:01:52.291Z,91.53
2023-05-15T11:02:52.344Z,88.94
2023-05-15T11:03:53.910Z,82.63
2023-05-15T11:04:52.351Z,83.92
2023-05-15T11:05:52.377Z,90.91
2023-05-15T11:06:52.381Z,89.15
2023-05-15T11:07:52.347Z,98.64
2023-05-15T11:08:52.340Z,94.22
2023-05-15T11:09:52.297Z,105.61
2023-05-15T11:10:52.299Z,112.29
2023-05-15T11:11:52.352Z,124.74
2023-05-15T11:12:52.298Z,127.32
2023-05-15T11:13:52.288Z,133.17
2023-05-15T11:14:52.297Z,136.66
2023-05-15T11:15:52.302Z,130.20
2023-05-15T11:16:52.344Z,137.12
2023-05-15T11:17:52.369Z,135.43
2023-05-15T11:18:52.391Z,135.63
2023-05-15T11:19:52.291Z,143.84
2023-05-15T11:20:52.237Z,142.75
2023-05-15T11:21:52.283Z,145.64
2023-05-15T11:22:52.212Z,146.06
2023-05-15T11:23:52.216Z,148.36
2023-05-15T11:24:52.231Z,147.57
2023-05-15T11:25:52.198Z,148.96
2023-05-15T11:26:52.191Z,148.48
2023-05-15T11:27:52.214Z,147.23
2023-05-15T11:28:52.191Z,146.70
2023-05-15T11:29:52.182Z,150.05
2023-05-15T11:30:52.233Z,148.57
2023-05-15T11:31:52.160Z,152.82
2023-05-15T11:32:52.253Z,152.77
2023-05-15T11:33:52.495Z,151.44
2023-05-15T11:34:52.178Z,153.93
2023-05-15T11:35:52.174Z,152.26
2023-05-15T11:36:52.138Z,151.98
2023-05-15T11:37:52.136Z,152.96
2023-05-15T11:38:52.180Z,154.68
2023-05-15T11:39:52.120Z,153.46
2023-05-15T11:40:52.094Z,156.09
2023-05-15T11:41:52.115Z,155.46
2023-05-15T11:42:52.094Z,153.26
2023-05-15T11:43:52.521Z,156.57
2023-05-15T11:44:52.069Z,161.47
2023-05-15T11:45:52.080Z,158.30
2023-05-15T11:46:52.074Z,159.04
2023-05-15T11:47:52.128Z,159.17
2023-05-15T11:48:52.116Z,157.59
2023-05-15T11:49:52.047Z,159.43
2023-05-15T11:50:52.025Z,162.57
2023-05-15T11:51:52.011Z,159.56
2023-05-15T11:52:52.006Z,165.64
2023-05-15T11:53:52.055Z,159.88
2023-05-15T11:54:52.027Z,162.56
2023-05-15T11:55:51.993Z,163.56
2023-05-15T11:56:52.011Z,165.43
2023-05-15T11:57:52.010Z,167.30
2023-05-15T11:58:52.076Z,164.25
2023-05-15T11:59:51.984Z,166.37
2023-05-15T12:00:51.973Z,161.33
2023-05-15T12:01:51.999Z,96.03
2023-05-15T12:02:52.164Z,59.93
2023-05-15T12:03:52.253Z,27.16
2023-05-15T12:04:52.196Z,17.42
2023-05-15T12:05:58.886Z,22.88
2023-05-15T12:06:53.119Z,20.85
2023-05-15T12:07:52.188Z,10.22
2023-05-15T12:08:52.120Z,20.93
2023-05-15T12:09:52.126Z,14.88
2023-05-15T12:10:52.133Z,6.08
2023-05-15T12:11:52.120Z,27.62
2023-05-15T12:12:52.125Z,25.47
2023-05-15T12:13:52.064Z,23.65
2023-05-15T12:14:52.054Z,28.76
2023-05-15T12:15:52.134Z,33.91
2023-05-15T12:16:52.140Z,26.31
2023-05-15T12:17:52.091Z,25.00
2023-05-15T12:18:52.206Z,36.51
2023-05-15T12:19:52.044Z,39.14
2023-05-15T12:20:52.109Z,44.10
2023-05-15T12:21:52.093Z,41.44
2023-05-15T12:22:52.179Z,49.57
2023-05-15T12:24:03.256Z,58.13
2023-05-15T12:24:53.175Z,58.33
2023-05-15T12:25:52.145Z,59.93
2023-05-15T12:26:52.149Z,65.93
2023-05-15T12:27:52.101Z,71.60
2023-05-15T12:28:52.119Z,89.15
2023-05-15T12:29:52.124Z,88.79
2023-05-15T12:30:52.110Z,93.03
2023-05-15T12:31:52.092Z,91.49